createdAt,value
2019-05-19T00:00:53.117Z,17.90
2019-05-19T00:03:22.062Z,17.80
2019-05-19T00:05:50.658Z,17.80
2019-05-19T00:08:19.222Z,17.80
2019-05-19T00:10:47.895Z,17.70
2019-05-19T00:13:16.475Z,17.60
2019-05-19T00:15:45.174Z,17.60
2019-05-19T00:18:14.006Z,17.60
2019-05-19T00:20:42.687Z,17.60
2019-05-19T00:23:11.209Z,17.60
2019-05-19T00:25:39.870Z,17.50
2019-05-19T00:28:08.505Z,17.50
2019-05-19T00:30:37.206Z,17.50
2019-05-19T00:33:05.890Z,17.50
2019-05-19T00:35:35.376Z,17.40
2019-05-19T00:38:04.064Z,17.40
2019-05-19T00:40:32.623Z,17.40
2019-05-19T00:43:01.283Z,17.40
2019-05-19T00:45:29.990Z,17.40
2019-05-19T00:47:58.629Z,17.40
2019-05-19T00:50:27.355Z,17.40
2019-05-19T00:52:56.812Z,17.30
2019-05-19T00:55:25.461Z,17.30
2019-05-19T00:57:55.205Z,17.30
2019-05-19T01:00:23.860Z,17.20
2019-05-19T01:02:52.490Z,17.20
2019-05-19T01:05:21.454Z,17.10
2019-05-19T01:07:50.050Z,17.10
2019-05-19T01:10:18.818Z,17.10
2019-05-19T01:12:47.551Z,17.00
2019-05-19T01:15:18.566Z,17.00
2019-05-19T01:17:47.120Z,17.00
2019-05-19T01:20:17.667Z,16.90
2019-05-19T01:22:46.539Z,16.90
2019-05-19T01:25:15.527Z,16.80
2019-05-19T01:27:44.286Z,16.80
2019-05-19T01:30:13.628Z,16.70
2019-05-19T01:32:42.283Z,16.70
2019-05-19T01:35:11.510Z,16.70
2019-05-19T01:37:40.210Z,16.70
2019-05-19T01:40:09.648Z,16.60
2019-05-19T01:42:38.464Z,16.60
2019-05-19T01:45:07.861Z,16.50
2019-05-19T01:47:36.752Z,16.50
2019-05-19T01:50:17.375Z,16.40
2019-05-19T01:52:38.886Z,16.40
2019-05-19T01:55:08.134Z,16.30
2019-05-19T01:57:36.729Z,16.30
2019-05-19T02:00:08.715Z,16.20
2019-05-19T02:02:37.731Z,16.20
2019-05-19T02:05:08.134Z,16.10
2019-05-19T02:07:37.267Z,16.10
2019-05-19T02:10:09.991Z,16.10
2019-05-19T02:12:38.878Z,16.00
2019-05-19T02:15:08.410Z,16.00
2019-05-19T02:17:37.038Z,15.90
2019-05-19T02:20:10.075Z,15.90
2019-05-19T02:22:38.810Z,16.00
2019-05-19T02:25:08.018Z,15.90
2019-05-19T02:27:36.737Z,15.90
2019-05-19T02:30:09.079Z,15.90
2019-05-19T02:32:37.935Z,15.90
2019-05-19T02:35:07.691Z,15.90
2019-05-19T02:37:36.363Z,15.90
2019-05-19T02:40:08.500Z,15.90
2019-05-19T02:42:41.639Z,15.90
2019-05-19T02:45:11.634Z,15.90
2019-05-19T02:47:42.740Z,15.90
2019-05-19T02:50:12.062Z,15.90
2019-05-19T02:52:41.825Z,15.90
2019-05-19T02:55:10.751Z,16.00
2019-05-19T02:57:41.862Z,16.00
2019-05-19T03:00:12.064Z,16.00
2019-05-19T03:02:40.677Z,16.10
2019-05-19T03:05:09.985Z,16.10
2019-05-19T03:07:38.555Z,16.10
2019-05-19T03:10:08.773Z,16.10
2019-05-19T03:12:37.387Z,16.10
2019-05-19T03:15:07.673Z,16.10
2019-05-19T03:17:36.302Z,16.20
2019-05-19T03:20:06.999Z,16.20
2019-05-19T03:22:35.635Z,16.20
2019-05-19T03:25:06.250Z,16.20
2019-05-19T03:27:35.086Z,16.20
2019-05-19T03:30:22.177Z,16.30
2019-05-19T03:32:52.445Z,16.30
2019-05-19T03:35:21.017Z,16.30
2019-05-19T03:37:49.785Z,16.30
2019-05-19T03:40:21.275Z,16.40
2019-05-19T03:42:53.016Z,16.40
2019-05-19T03:45:21.594Z,16.40
2019-05-19T03:47:50.254Z,16.40
2019-05-19T03:50:19.246Z,16.50
2019-05-19T03:52:47.825Z,16.50
2019-05-19T03:55:16.540Z,16.50
2019-05-19T03:57:45.131Z,16.50
2019-05-19T04:00:14.156Z,16.60
2019-05-19T04:02:42.777Z,16.60
2019-05-19T04:05:11.725Z,16.60
2019-05-19T04:07:40.351Z,16.70
2019-05-19T04:10:09.903Z,16.70
2019-05-19T04:12:38.824Z,16.80
2019-05-19T04:15:07.730Z,16.80
2019-05-19T04:17:36.605Z,16.90
2019-05-19T04:20:09.690Z,16.90
2019-05-19T04:22:38.279Z,17.00
2019-05-19T04:25:07.758Z,17.10
2019-05-19T04:27:36.604Z,17.10
2019-05-19T04:30:07.609Z,17.20
2019-05-19T04:32:36.284Z,17.30
2019-05-19T04:35:06.337Z,17.30
2019-05-19T04:37:35.027Z,17.30
2019-05-19T04:40:05.611Z,17.40
2019-05-19T04:42:34.247Z,17.50
2019-05-19T04:45:03.000Z,17.60
2019-05-19T04:47:31.644Z,17.70
2019-05-19T04:50:00.316Z,17.70
2019-05-19T04:52:28.978Z,17.70
2019-05-19T04:54:57.566Z,17.80
2019-05-19T04:57:26.158Z,17.90
2019-05-19T04:59:54.783Z,17.90
2019-05-19T05:02:23.419Z,18.00
2019-05-19T05:04:52.063Z,18.10
2019-05-19T05:07:20.663Z,18.20
2019-05-19T05:09:49.252Z,18.20
2019-05-19T05:12:17.815Z,18.30
2019-05-19T05:14:46.682Z,18.30
2019-05-19T05:17:15.318Z,18.30
2019-05-19T05:19:43.910Z,18.30
2019-05-19T05:22:21.697Z,18.30
2019-05-19T05:24:42.803Z,18.40
2019-05-19T05:27:11.392Z,18.50
2019-05-19T05:29:40.201Z,18.60
2019-05-19T05:32:08.726Z,18.60
2019-05-19T05:34:37.564Z,18.70
2019-05-19T05:37:06.510Z,18.70
2019-05-19T05:39:35.201Z,18.80
2019-05-19T05:42:03.861Z,18.90
2019-05-19T05:44:32.434Z,19.00
2019-05-19T05:47:01.027Z,19.10
2019-05-19T05:49:29.691Z,19.10
2019-05-19T05:51:58.659Z,19.20
2019-05-19T05:54:27.234Z,19.20
2019-05-19T05:56:55.826Z,19.30
2019-05-19T05:59:24.516Z,19.40
2019-05-19T06:01:53.069Z,19.50
2019-05-19T06:04:21.676Z,19.60
2019-05-19T06:06:50.330Z,19.60
2019-05-19T06:09:18.986Z,19.70
2019-05-19T06:11:47.579Z,19.80
2019-05-19T06:14:16.373Z,19.80
2019-05-19T06:16:45.406Z,19.90
2019-05-19T06:19:14.178Z,20.00
2019-05-19T06:21:42.721Z,20.00
2019-05-19T06:24:11.514Z,20.10
2019-05-19T06:26:40.260Z,20.20
2019-05-19T06:29:09.017Z,20.30
2019-05-19T06:31:37.574Z,20.40
2019-05-19T06:34:06.328Z,20.40
2019-05-19T06:36:35.269Z,20.50
2019-05-19T06:39:06.715Z,20.60
2019-05-19T06:41:35.596Z,20.60
2019-05-19T06:44:04.362Z,20.70
2019-05-19T06:46:32.948Z,20.80
2019-05-19T06:49:02.072Z,20.80
2019-05-19T06:51:30.720Z,20.90
2019-05-19T06:53:59.404Z,20.90
2019-05-19T06:56:28.432Z,21.00
2019-05-19T06:58:57.163Z,21.00
2019-05-19T07:01:25.994Z,21.00
2019-05-19T07:03:54.610Z,21.10
2019-05-19T07:06:24.084Z,21.10
2019-05-19T07:08:53.541Z,21.20
2019-05-19T07:11:22.247Z,21.30
2019-05-19T07:13:51.073Z,21.30
2019-05-19T07:16:22.555Z,21.40
2019-05-19T07:18:51.052Z,21.40
2019-05-19T07:21:20.050Z,21.50
2019-05-19T07:23:48.638Z,21.60
2019-05-19T07:26:17.260Z,21.70
2019-05-19T07:28:45.979Z,21.80
2019-05-19T07:31:14.676Z,21.90
2019-05-19T07:33:43.266Z,22.00
2019-05-19T07:36:11.871Z,22.10
2019-05-19T07:38:41.322Z,22.20
2019-05-19T07:41:09.979Z,22.20
2019-05-19T07:43:38.613Z,22.20
2019-05-19T07:46:07.592Z,22.30
2019-05-19T07:48:36.278Z,22.50
2019-05-19T07:51:04.907Z,22.50
2019-05-19T07:53:42.495Z,22.50
2019-05-19T07:56:04.115Z,22.60
2019-05-19T07:58:32.711Z,22.70
2019-05-19T08:01:01.420Z,22.80
2019-05-19T08:03:30.121Z,22.80
2019-05-19T08:06:00.525Z,22.90
2019-05-19T08:08:29.243Z,23.00
2019-05-19T08:10:57.982Z,23.00
2019-05-19T08:13:26.651Z,23.10
2019-05-19T08:15:55.258Z,23.30
2019-05-19T08:18:23.819Z,23.30
2019-05-19T08:20:53.033Z,23.40
2019-05-19T08:23:21.630Z,23.50
2019-05-19T08:25:50.382Z,23.50
2019-05-19T08:28:19.017Z,23.50
2019-05-19T08:30:47.673Z,23.60
2019-05-19T08:33:16.240Z,23.70
2019-05-19T08:35:45.151Z,23.80
2019-05-19T08:38:13.760Z,23.90
2019-05-19T08:40:42.406Z,24.00
2019-05-19T08:43:11.258Z,24.20
2019-05-19T08:45:40.327Z,24.20
2019-05-19T08:48:08.869Z,24.30
2019-05-19T08:50:37.470Z,24.30
2019-05-19T08:53:06.242Z,24.50
2019-05-19T08:55:34.907Z,24.70
2019-05-19T08:58:04.255Z,24.70
2019-05-19T09:00:37.583Z,24.80
2019-05-19T09:03:03.245Z,25.00
2019-05-19T09:05:31.811Z,25.10
2019-05-19T09:08:00.625Z,25.20
2019-05-19T09:10:29.401Z,25.20
2019-05-19T09:12:58.246Z,25.40
2019-05-19T09:15:26.910Z,26.00
2019-05-19T09:17:55.494Z,27.30
2019-05-19T09:20:24.331Z,28.60
2019-05-19T09:22:53.010Z,29.80
2019-05-19T09:25:21.657Z,30.70
2019-05-19T09:27:50.258Z,31.20
2019-05-19T09:30:19.067Z,32.10
2019-05-19T09:32:49.264Z,32.60
2019-05-19T09:35:18.786Z,33.00
2019-05-19T09:37:47.412Z,33.40
2019-05-19T09:40:16.266Z,33.70
2019-05-19T09:42:44.959Z,33.80
2019-05-19T09:45:13.760Z,34.60
2019-05-19T09:47:43.115Z,35.40
2019-05-19T09:50:12.623Z,35.80
2019-05-19T09:52:41.557Z,36.40
2019-05-19T09:55:10.568Z,37.10
2019-05-19T09:57:39.275Z,37.60
2019-05-19T10:00:08.582Z,37.90
2019-05-19T10:02:37.279Z,38.10
2019-05-19T10:05:07.894Z,38.20
2019-05-19T10:07:36.565Z,38.30
2019-05-19T10:10:21.370Z,38.50
2019-05-19T10:12:50.116Z,38.60
2019-05-19T10:15:18.796Z,38.80
2019-05-19T10:17:47.572Z,38.90
2019-05-19T10:20:18.173Z,38.50
2019-05-19T10:22:46.904Z,38.90
2019-05-19T10:25:22.257Z,39.30
2019-05-19T10:27:47.302Z,39.50
2019-05-19T10:30:17.767Z,39.40
2019-05-19T10:32:46.553Z,39.20
2019-05-19T10:35:15.681Z,40.00
2019-05-19T10:37:44.333Z,40.30
2019-05-19T10:40:13.734Z,40.40
2019-05-19T10:42:42.487Z,40.70
2019-05-19T10:45:12.035Z,41.20
2019-05-19T10:47:42.666Z,41.30
2019-05-19T10:50:11.873Z,41.00
2019-05-19T10:52:40.453Z,40.40
2019-05-19T10:55:09.598Z,40.00
2019-05-19T10:57:38.471Z,40.20
2019-05-19T11:00:07.829Z,40.20
2019-05-19T11:02:36.516Z,40.20
2019-05-19T11:05:06.979Z,40.60
2019-05-19T11:07:35.656Z,41.00
2019-05-19T11:10:06.502Z,41.60
2019-05-19T11:12:35.481Z,42.30
2019-05-19T11:15:08.824Z,42.50
2019-05-19T11:17:37.438Z,43.00
2019-05-19T11:20:06.474Z,43.60
2019-05-19T11:22:35.176Z,43.90
2019-05-19T11:25:06.360Z,43.90
2019-05-19T11:27:34.977Z,43.40
2019-05-19T11:30:04.935Z,42.90
2019-05-19T11:32:33.567Z,42.80
2019-05-19T11:35:02.305Z,43.30
2019-05-19T11:37:30.942Z,44.10
2019-05-19T11:39:59.544Z,43.80
2019-05-19T11:42:28.162Z,43.60
2019-05-19T11:44:57.143Z,43.70
2019-05-19T11:47:25.826Z,43.60
2019-05-19T11:49:54.474Z,43.90
2019-05-19T11:52:23.122Z,44.00
2019-05-19T11:54:51.678Z,44.00
2019-05-19T11:57:20.323Z,44.50
2019-05-19T11:59:48.911Z,44.70
2019-05-19T12:02:20.550Z,44.60
2019-05-19T12:04:49.212Z,44.70
2019-05-19T12:07:18.031Z,45.00
2019-05-19T12:09:47.055Z,44.90
2019-05-19T12:12:15.765Z,44.90
2019-05-19T12:14:44.738Z,45.50
2019-05-19T12:17:13.581Z,46.30
2019-05-19T12:19:42.571Z,46.80
2019-05-19T12:22:11.138Z,47.00
2019-05-19T12:24:39.867Z,47.10
2019-05-19T12:27:08.670Z,46.20
2019-05-19T12:29:37.754Z,46.50
2019-05-19T12:32:06.416Z,46.50
2019-05-19T12:34:35.263Z,45.90
2019-05-19T12:37:03.998Z,45.50
2019-05-19T12:39:32.567Z,45.50
2019-05-19T12:42:01.162Z,45.80
2019-05-19T12:44:29.794Z,46.40
2019-05-19T12:46:58.508Z,46.40
2019-05-19T12:49:27.163Z,45.60
2019-05-19T12:51:56.789Z,45.10
2019-05-19T12:54:25.688Z,45.30
2019-05-19T12:56:54.446Z,45.10
2019-05-19T12:59:23.486Z,45.20
2019-05-19T13:01:56.162Z,45.30
2019-05-19T13:04:24.688Z,45.40
2019-05-19T13:06:53.517Z,45.20
2019-05-19T13:09:22.403Z,45.10
2019-05-19T13:11:51.127Z,45.80
2019-05-19T13:14:19.905Z,46.50
2019-05-19T13:16:48.883Z,46.40
2019-05-19T13:19:17.868Z,46.20
2019-05-19T13:21:47.211Z,46.10
2019-05-19T13:24:17.518Z,45.80
2019-05-19T13:26:56.040Z,45.10
2019-05-19T13:29:16.395Z,44.70
2019-05-19T13:31:45.040Z,44.70
2019-05-19T13:34:13.678Z,45.00
2019-05-19T13:36:42.403Z,45.70
2019-05-19T13:39:11.192Z,45.80
2019-05-19T13:41:39.832Z,45.10
2019-05-19T13:44:09.194Z,44.50
2019-05-19T13:46:37.758Z,44.20
2019-05-19T13:49:06.444Z,44.00
2019-05-19T13:51:35.210Z,44.30
2019-05-19T13:54:03.831Z,44.40
2019-05-19T13:56:32.525Z,44.70
2019-05-19T13:59:01.206Z,44.80
2019-05-19T14:01:29.851Z,44.60
2019-05-19T14:03:58.450Z,44.10
2019-05-19T14:06:27.083Z,44.30
2019-05-19T14:08:55.732Z,44.30
2019-05-19T14:11:26.127Z,44.30
2019-05-19T14:13:54.634Z,44.70
2019-05-19T14:16:23.273Z,44.80
2019-05-19T14:18:51.940Z,44.50
2019-05-19T14:21:20.791Z,43.90
2019-05-19T14:23:49.643Z,43.70
2019-05-19T14:26:18.291Z,43.90
2019-05-19T14:28:47.195Z,44.20
2019-05-19T14:31:15.846Z,43.80
2019-05-19T14:33:44.848Z,43.90
2019-05-19T14:36:13.522Z,44.40
2019-05-19T14:38:43.742Z,44.70
2019-05-19T14:41:12.361Z,45.10
2019-05-19T14:43:41.091Z,45.20
2019-05-19T14:46:09.768Z,45.10
2019-05-19T14:48:38.325Z,44.90
2019-05-19T14:51:07.143Z,44.50
2019-05-19T14:53:35.751Z,44.60
2019-05-19T14:56:05.399Z,44.60
2019-05-19T14:58:34.230Z,44.30
2019-05-19T15:01:03.039Z,43.50
2019-05-19T15:03:31.868Z,43.20
2019-05-19T15:06:00.541Z,42.80
2019-05-19T15:08:29.159Z,42.60
2019-05-19T15:10:58.724Z,42.20
2019-05-19T15:13:27.282Z,42.20
2019-05-19T15:15:58.006Z,42.50
2019-05-19T15:18:26.237Z,42.70
2019-05-19T15:20:54.886Z,42.80
2019-05-19T15:23:23.720Z,42.70
2019-05-19T15:25:52.359Z,42.60
2019-05-19T15:28:21.185Z,42.40
2019-05-19T15:30:49.955Z,41.60
2019-05-19T15:33:18.598Z,41.10
2019-05-19T15:35:47.306Z,41.10
2019-05-19T15:38:16.142Z,41.10
2019-05-19T15:40:44.892Z,41.20
2019-05-19T15:43:13.880Z,41.30
2019-05-19T15:45:42.662Z,41.10
2019-05-19T15:48:11.315Z,41.10
2019-05-19T15:50:40.023Z,41.00
2019-05-19T15:53:08.837Z,40.80
2019-05-19T15:55:37.504Z,40.90
2019-05-19T15:58:16.242Z,40.80
2019-05-19T16:00:36.838Z,40.90
2019-05-19T16:03:05.722Z,40.80
2019-05-19T16:05:34.390Z,40.60
2019-05-19T16:08:03.474Z,40.20
2019-05-19T16:10:32.236Z,39.60
2019-05-19T16:13:00.945Z,38.90
2019-05-19T16:15:29.567Z,38.50
2019-05-19T16:17:58.126Z,38.20
2019-05-19T16:20:27.222Z,38.20
2019-05-19T16:22:55.927Z,38.30
2019-05-19T16:25:25.125Z,38.50
2019-05-19T16:27:53.793Z,38.90
2019-05-19T16:30:22.743Z,38.80
2019-05-19T16:32:51.404Z,38.60
2019-05-19T16:35:20.459Z,38.50
2019-05-19T16:37:49.014Z,38.40
2019-05-19T16:40:17.654Z,38.30
2019-05-19T16:42:46.299Z,38.00
2019-05-19T16:45:15.345Z,37.60
2019-05-19T16:47:45.996Z,37.20
2019-05-19T16:50:14.710Z,37.00
2019-05-19T16:52:44.009Z,36.90
2019-05-19T16:55:17.397Z,36.70
2019-05-19T16:57:46.168Z,36.50
2019-05-19T17:00:15.275Z,36.20
2019-05-19T17:02:43.945Z,36.00
2019-05-19T17:05:12.830Z,35.90
2019-05-19T17:07:41.569Z,35.60
2019-05-19T17:10:10.918Z,35.40
2019-05-19T17:12:39.814Z,35.00
2019-05-19T17:15:09.347Z,34.70
2019-05-19T17:17:38.264Z,34.30
2019-05-19T17:20:08.516Z,33.80
2019-05-19T17:22:37.900Z,33.40
2019-05-19T17:25:07.651Z,33.10
2019-05-19T17:27:36.629Z,32.90
2019-05-19T17:30:09.119Z,32.80
2019-05-19T17:32:38.388Z,32.60
2019-05-19T17:35:07.863Z,32.50
2019-05-19T17:37:36.547Z,32.30
2019-05-19T17:40:06.451Z,32.10
2019-05-19T17:42:37.356Z,31.80
2019-05-19T17:45:09.480Z,31.50
2019-05-19T17:47:38.691Z,31.30
2019-05-19T17:50:08.259Z,31.10
2019-05-19T17:52:37.144Z,30.80
2019-05-19T17:55:07.983Z,30.40
2019-05-19T17:57:37.991Z,30.00
2019-05-19T18:00:10.244Z,29.60
2019-05-19T18:02:39.100Z,29.30
2019-05-19T18:05:07.764Z,29.00
2019-05-19T18:07:36.735Z,28.70
2019-05-19T18:10:07.596Z,28.40
2019-05-19T18:12:36.492Z,28.20
2019-05-19T18:15:07.392Z,28.00
2019-05-19T18:17:36.081Z,27.90
2019-05-19T18:20:22.935Z,27.70
2019-05-19T18:22:44.415Z,27.50
2019-05-19T18:25:13.512Z,27.30
2019-05-19T18:27:42.274Z,27.10
2019-05-19T18:30:11.499Z,27.00
2019-05-19T18:32:41.878Z,26.80
2019-05-19T18:35:10.714Z,26.60
2019-05-19T18:37:39.328Z,26.50
2019-05-19T18:40:08.576Z,26.30
2019-05-19T18:42:37.178Z,26.30
2019-05-19T18:45:07.688Z,26.20
2019-05-19T18:47:36.305Z,26.10
2019-05-19T18:50:08.379Z,26.00
2019-05-19T18:52:37.023Z,25.90
2019-05-19T18:55:07.406Z,25.80
2019-05-19T18:57:37.858Z,25.80
2019-05-19T19:00:07.542Z,25.70
2019-05-19T19:02:36.501Z,25.70
2019-05-19T19:05:06.739Z,25.60
2019-05-19T19:07:48.834Z,25.60
2019-05-19T19:10:17.574Z,25.50
2019-05-19T19:12:46.433Z,25.30
2019-05-19T19:15:15.102Z,25.20
2019-05-19T19:17:44.037Z,25.10
2019-05-19T19:20:13.276Z,25.00
2019-05-19T19:22:41.842Z,24.90
2019-05-19T19:25:11.337Z,24.70
2019-05-19T19:27:40.051Z,24.60
2019-05-19T19:30:09.590Z,24.50
2019-05-19T19:32:38.458Z,24.40
2019-05-19T19:35:08.575Z,24.30
2019-05-19T19:37:37.205Z,24.20
2019-05-19T19:40:07.587Z,24.20
2019-05-19T19:42:36.179Z,24.10
2019-05-19T19:45:05.894Z,24.10
2019-05-19T19:47:34.783Z,24.00
2019-05-19T19:50:04.525Z,23.90
2019-05-19T19:52:33.175Z,23.80
2019-05-19T19:55:01.766Z,23.70
2019-05-19T19:57:30.407Z,23.60
2019-05-19T19:59:59.023Z,23.50
2019-05-19T20:02:27.613Z,23.50
2019-05-19T20:04:56.490Z,23.40
2019-05-19T20:07:25.074Z,23.30
2019-05-19T20:09:53.701Z,23.30
2019-05-19T20:12:22.636Z,23.20
2019-05-19T20:14:51.223Z,23.10
2019-05-19T20:17:19.802Z,23.10
2019-05-19T20:19:48.424Z,23.00
2019-05-19T20:22:16.987Z,22.90
2019-05-19T20:24:45.602Z,22.90
2019-05-19T20:27:14.198Z,22.80
2019-05-19T20:29:42.812Z,22.80
2019-05-19T20:32:11.430Z,22.70
2019-05-19T20:34:40.037Z,22.60
2019-05-19T20:37:08.732Z,22.60
2019-05-19T20:39:37.327Z,22.50
2019-05-19T20:42:06.127Z,22.50
2019-05-19T20:44:34.757Z,22.40
2019-05-19T20:47:03.401Z,22.40
2019-05-19T20:49:32.029Z,22.30
2019-05-19T20:52:00.650Z,22.30
2019-05-19T20:54:29.210Z,22.20
2019-05-19T20:56:57.923Z,22.10
2019-05-19T20:59:26.584Z,22.10
2019-05-19T21:01:55.161Z,22.00
2019-05-19T21:04:23.975Z,22.00
2019-05-19T21:06:52.630Z,21.90
2019-05-19T21:09:21.194Z,21.90
2019-05-19T21:11:49.774Z,21.80
2019-05-19T21:14:18.410Z,21.80
2019-05-19T21:16:46.978Z,21.70
2019-05-19T21:19:15.553Z,21.70
2019-05-19T21:21:44.148Z,21.60
2019-05-19T21:24:12.742Z,21.60
2019-05-19T21:26:41.514Z,21.50
2019-05-19T21:29:10.055Z,21.50
2019-05-19T21:31:38.622Z,21.50
2019-05-19T21:34:07.356Z,21.50
2019-05-19T21:36:35.922Z,21.40
2019-05-19T21:39:05.633Z,21.30
2019-05-19T21:41:34.210Z,21.30
2019-05-19T21:44:02.852Z,21.30
2019-05-19T21:46:31.439Z,21.30
2019-05-19T21:49:00.010Z,21.30
2019-05-19T21:51:28.579Z,21.20
2019-05-19T21:53:57.178Z,21.20
2019-05-19T21:56:25.722Z,21.20
2019-05-19T21:58:54.330Z,21.20
2019-05-19T22:01:23.765Z,21.10
2019-05-19T22:03:52.518Z,21.10
2019-05-19T22:06:22.731Z,21.10
2019-05-19T22:08:51.582Z,21.00
2019-05-19T22:11:20.110Z,21.00
2019-05-19T22:13:48.701Z,21.00
2019-05-19T22:16:17.260Z,20.90
2019-05-19T22:18:45.906Z,20.90
2019-05-19T22:21:14.478Z,20.80
2019-05-19T22:23:43.075Z,20.80
2019-05-19T22:26:11.642Z,20.80
2019-05-19T22:28:40.215Z,20.70
2019-05-19T22:31:08.787Z,20.70
2019-05-19T22:33:37.355Z,20.70
2019-05-19T22:36:06.045Z,20.60
2019-05-19T22:38:34.617Z,20.60
2019-05-19T22:41:03.209Z,20.60
2019-05-19T22:43:31.769Z,20.50
2019-05-19T22:46:00.330Z,20.50
2019-05-19T22:48:28.940Z,20.40
2019-05-19T22:50:57.506Z,20.30
2019-05-19T22:53:26.243Z,20.40
2019-05-19T22:55:54.833Z,20.30
2019-05-19T22:58:23.392Z,20.30
2019-05-19T23:00:52.067Z,20.20
2019-05-19T23:03:20.709Z,20.20
2019-05-19T23:05:49.282Z,20.20
2019-05-19T23:08:17.914Z,20.20
2019-05-19T23:10:46.485Z,20.20
2019-05-19T23:13:15.085Z,20.10
2019-05-19T23:15:43.651Z,20.10
2019-05-19T23:18:12.230Z,20.10
2019-05-19T23:20:41.174Z,20.10
2019-05-19T23:23:09.809Z,20.10
2019-05-19T23:25:38.411Z,20.00
2019-05-19T23:28:06.974Z,20.00
2019-05-19T23:30:35.620Z,19.90
2019-05-19T23:33:04.196Z,19.90
2019-05-19T23:35:32.770Z,19.80
2019-05-19T23:38:01.511Z,19.80
2019-05-19T23:40:30.088Z,19.80
2019-05-19T23:42:58.658Z,19.70
2019-05-19T23:45:27.309Z,19.70
2019-05-19T23:47:55.874Z,19.70
2019-05-19T23:50:24.479Z,19.60
2019-05-19T23:52:53.058Z,19.60
2019-05-19T23:55:21.614Z,19.50
2019-05-19T23:57:50.197Z,19.60
